Airfield :
LOGIN :

Register | Disclaimer

   EN    FR    IT 

 










Legend :    VFR   Marginal VFR   IFR   Intensive IFR   Very Intensive IFR
Visi :
Ceiling :
>= 8 km
>= 3000ft
5 to 8 km
1000 to 3000 ft
1500m to 5 km
500 to 1000 ft
800 to 1500m
200 to 500 ft
< 800m
< 200 ft
Symbols :   Thunderstorms  Fog  Heavy snow  Heavy precipitations  Wind > 20 kt
SIGMETs :     Misc.  Thunderstorms  Icing  Turbulence  Mountain Waves  Volcanic Ashes







- Airport Elevation : 36 ft
- IATA code : LTQ
- Download approach charts


LFAT - Le Touquet

CURRENT METAR :
  • 211200Z AUTO 32013KT 9999 BKN043 16/08 Q1025 NOSIG

EXPIRED METARs :
  • 211130Z AUTO 32015KT 9999 FEW043 16/07 Q1025 NOSIG
  • 211100Z AUTO 34017KT CAVOK 16/06 Q1024 NOSIG
  • 211030Z AUTO 33016KT 9999 FEW037 16/07 Q1024 NOSIG
  • 211000Z AUTO 33014KT 9999 FEW036 16/08 Q1024 NOSIG
  • 210930Z AUTO 34015KT 9999 SCT033 15/07 Q1024 NOSIG

TAF TAF LFAT
Valid from the 21 at 12:00 until the 21 at 21:00 UTC


211100Z 2112/2121 35014KT 9999 SCT040
BECMG 2115/2118 05008KT
ATIS : +33 3 21 06 62 84
No reported NOTAMs for that airfield.



MET'MAP, your aeronautical weather chart ! - Copyright ORBIFLY December 2007 - Disclaimer

ORBIFLY MET'MAP TEAM :

Programming & Development : Alexandra Zaïnal
Concept & Development : Baudouin d'Aumeries
Co-Development & Prog : Marc-Olivier Méhu
Technical & hardware support : Manuel Goepfert

Contact : metmap@orbifly.com




SOURCES & CREDITS :

   NOAA